createdAt,value
2023-04-05T00:00:58.775Z,71.40
2023-04-05T00:03:27.024Z,71.04
2023-04-05T00:05:55.552Z,72.49
2023-04-05T00:08:26.765Z,72.37
2023-04-05T00:10:54.584Z,72.05
2023-04-05T00:13:22.854Z,71.76
2023-04-05T00:15:51.213Z,71.16
2023-04-05T00:18:23.741Z,72.58
2023-04-05T00:20:52.222Z,72.54
2023-04-05T00:23:21.253Z,72.69
2023-04-05T00:25:49.119Z,72.76
2023-04-05T00:28:17.306Z,73.91
2023-04-05T00:30:45.283Z,74.44
2023-04-05T00:33:13.580Z,74.46
2023-04-05T00:35:43.310Z,74.53
2023-04-05T00:38:11.294Z,74.56
2023-04-05T00:40:39.785Z,73.95
2023-04-05T00:43:08.276Z,74.23
2023-04-05T00:45:36.805Z,74.77
2023-04-05T00:48:05.866Z,74.32
2023-04-05T00:50:34.366Z,75.19
2023-04-05T00:53:03.593Z,74.76
2023-04-05T00:55:34.053Z,74.79
2023-04-05T00:58:02.130Z,74.90
2023-04-05T01:00:30.314Z,74.17
2023-04-05T01:03:01.736Z,75.51
2023-04-05T01:05:37.671Z,75.42
2023-04-05T01:08:14.305Z,75.75
2023-04-05T01:10:47.665Z,75.68
2023-04-05T01:13:17.570Z,75.40
2023-04-05T01:15:46.269Z,77.14
2023-04-05T01:18:14.427Z,78.05
2023-04-05T01:20:52.846Z,77.72
2023-04-05T01:23:37.543Z,78.28
2023-04-05T01:26:29.945Z,78.21
2023-04-05T01:29:20.445Z,78.40
2023-04-05T01:31:57.435Z,79.52
2023-04-05T01:34:31.878Z,79.39
2023-04-05T01:37:06.169Z,79.37
2023-04-05T01:39:37.077Z,79.80
2023-04-05T01:42:06.220Z,79.82
2023-04-05T01:44:34.235Z,80.60
2023-04-05T01:47:03.263Z,80.86
2023-04-05T01:49:30.968Z,79.50
2023-04-05T01:51:58.723Z,80.16
2023-04-05T01:54:28.419Z,80.60
2023-04-05T01:56:56.672Z,80.70
2023-04-05T01:59:24.537Z,80.68
2023-04-05T02:01:53.246Z,80.82
2023-04-05T02:04:22.341Z,82.52
2023-04-05T02:06:50.486Z,82.33
2023-04-05T02:09:18.442Z,82.56
2023-04-05T02:11:46.979Z,81.72
2023-04-05T02:14:15.009Z,81.48
2023-04-05T02:16:43.314Z,80.76
2023-04-05T02:19:13.218Z,80.66
2023-04-05T02:21:42.595Z,81.46
2023-04-05T02:24:10.432Z,80.51
2023-04-05T02:26:39.539Z,80.94
2023-04-05T02:29:07.251Z,80.45
2023-04-05T02:31:35.348Z,80.90
2023-04-05T02:34:03.811Z,80.66
2023-04-05T02:36:34.312Z,80.92
2023-04-05T02:39:05.792Z,80.49
2023-04-05T02:41:33.571Z,80.64
2023-04-05T02:44:02.182Z,82.19
2023-04-05T02:46:31.835Z,82.43
2023-04-05T02:49:00.607Z,82.35
2023-04-05T02:51:30.378Z,82.00
2023-04-05T02:53:59.070Z,81.35
2023-04-05T02:56:29.161Z,80.59
2023-04-05T02:58:58.751Z,80.77
2023-04-05T03:01:28.771Z,80.31
2023-04-05T03:03:58.542Z,80.28
2023-04-05T03:06:26.481Z,80.86
2023-04-05T03:08:55.940Z,80.63
2023-04-05T03:11:26.161Z,80.65
2023-04-05T03:13:59.310Z,80.77
2023-04-05T03:16:35.386Z,81.09
2023-04-05T03:19:10.976Z,81.65
2023-04-05T03:21:43.050Z,81.26
2023-04-05T03:24:24.042Z,81.38
2023-04-05T03:26:53.438Z,80.66
2023-04-05T03:29:26.153Z,81.49
2023-04-05T03:31:55.801Z,80.81
2023-04-05T03:34:29.077Z,81.33
2023-04-05T03:37:03.218Z,81.04
2023-04-05T03:39:40.505Z,81.27
2023-04-05T03:42:08.523Z,81.37
2023-04-05T03:44:37.787Z,80.87
2023-04-05T03:47:05.706Z,80.76
2023-04-05T03:49:33.530Z,80.04
2023-04-05T03:52:01.879Z,80.49
2023-04-05T03:54:29.804Z,81.60
2023-04-05T03:57:01.091Z,80.72
2023-04-05T03:59:29.789Z,81.47
2023-04-05T04:02:01.068Z,80.79
2023-04-05T04:04:29.676Z,81.25
2023-04-05T04:06:58.240Z,81.50
2023-04-05T04:09:29.732Z,82.82
2023-04-05T04:11:59.586Z,82.24
2023-04-05T04:14:27.683Z,82.32
2023-04-05T04:17:27.661Z,83.00
2023-04-05T04:20:19.474Z,81.71
2023-04-05T04:22:50.093Z,83.18
2023-04-05T04:25:55.784Z,82.84
2023-04-05T04:28:44.671Z,83.47
2023-04-05T04:31:25.310Z,82.29
2023-04-05T04:34:06.265Z,83.72
2023-04-05T04:37:01.264Z,82.85
2023-04-05T04:39:37.762Z,82.96
2023-04-05T04:42:33.698Z,83.77
2023-04-05T04:45:16.112Z,84.02
2023-04-05T04:47:49.097Z,83.61
2023-04-05T04:50:22.133Z,84.46
2023-04-05T04:52:49.870Z,83.59
2023-04-05T04:55:17.684Z,84.82
2023-04-05T04:57:47.928Z,84.68
2023-04-05T05:00:16.772Z,83.39
2023-04-05T05:02:46.213Z,84.18
2023-04-05T05:05:16.866Z,83.43
2023-04-05T05:07:46.469Z,83.92
2023-04-05T05:10:16.282Z,83.99
2023-04-05T05:12:44.592Z,83.47
2023-04-05T05:15:14.531Z,84.37
2023-04-05T05:17:44.606Z,83.86
2023-04-05T05:20:13.354Z,84.09
2023-04-05T05:22:47.684Z,84.25
2023-04-05T05:25:15.651Z,84.38
2023-04-05T05:27:43.890Z,85.16
2023-04-05T05:30:13.573Z,85.57
2023-04-05T05:32:42.975Z,85.45
2023-04-05T05:35:10.895Z,85.53
2023-04-05T05:37:39.121Z,84.60
2023-04-05T05:40:13.495Z,84.07
2023-04-05T05:42:41.871Z,84.43
2023-04-05T05:45:11.087Z,84.69
2023-04-05T05:47:39.101Z,83.29
2023-04-05T05:50:09.985Z,83.89
2023-04-05T05:52:37.864Z,84.03
2023-04-05T05:55:07.278Z,84.21
2023-04-05T05:57:36.720Z,83.98
2023-04-05T06:00:09.565Z,84.49
2023-04-05T06:02:40.627Z,84.02
2023-04-05T06:05:09.647Z,83.92
2023-04-05T06:07:38.331Z,84.61
2023-04-05T06:10:06.981Z,84.14
2023-04-05T06:12:38.582Z,84.55
2023-04-05T06:15:09.758Z,84.72
2023-04-05T06:17:42.332Z,84.29
2023-04-05T06:20:12.343Z,84.07
2023-04-05T06:22:41.580Z,84.14
2023-04-05T06:25:12.214Z,83.37
2023-04-05T06:27:41.456Z,83.07
2023-04-05T06:30:10.478Z,82.55
2023-04-05T06:32:38.571Z,82.60
2023-04-05T06:35:07.590Z,82.17
2023-04-05T06:37:35.710Z,83.10
2023-04-05T06:40:03.551Z,83.62
2023-04-05T06:42:31.272Z,83.02
2023-04-05T06:45:06.801Z,82.07
2023-04-05T06:47:35.712Z,80.78
2023-04-05T06:50:03.743Z,81.58
2023-04-05T06:52:31.780Z,79.22
2023-04-05T06:54:59.574Z,78.06
2023-04-05T06:57:27.543Z,77.02
2023-04-05T06:59:56.238Z,78.01
2023-04-05T07:02:25.672Z,76.83
2023-04-05T07:04:54.001Z,75.70
2023-04-05T07:07:22.219Z,73.78
2023-04-05T07:09:50.059Z,74.12
2023-04-05T07:12:17.798Z,72.68
2023-04-05T07:14:45.617Z,72.37
2023-04-05T07:17:13.800Z,73.03
2023-04-05T07:19:42.871Z,72.13
2023-04-05T07:22:11.018Z,70.53
2023-04-05T07:24:38.702Z,70.91
2023-04-05T07:27:06.455Z,69.25
2023-04-05T07:29:38.180Z,67.08
2023-04-05T07:32:06.388Z,66.12
2023-04-05T07:34:34.389Z,64.25
2023-04-05T07:37:06.323Z,64.59
2023-04-05T07:39:34.284Z,66.39
2023-04-05T07:42:02.294Z,65.11
2023-04-05T07:44:29.972Z,66.47
2023-04-05T07:46:57.740Z,66.01
2023-04-05T07:49:26.574Z,67.18
2023-04-05T07:51:56.426Z,67.08
2023-04-05T07:54:25.544Z,66.67
2023-04-05T07:56:55.441Z,61.60
2023-04-05T07:59:23.357Z,58.69
2023-04-05T08:01:51.579Z,58.15
2023-04-05T08:04:19.876Z,60.11
2023-04-05T08:06:48.159Z,59.25
2023-04-05T08:09:15.886Z,57.36
2023-04-05T08:11:44.952Z,59.13
2023-04-05T08:14:12.677Z,62.07
2023-04-05T08:16:40.614Z,58.82
2023-04-05T08:19:08.376Z,58.47
2023-04-05T08:21:36.018Z,59.38
2023-04-05T08:24:03.908Z,59.66
2023-04-05T08:26:31.806Z,59.57
2023-04-05T08:29:00.783Z,58.86
2023-04-05T08:31:28.606Z,58.99
2023-04-05T08:33:56.469Z,59.79
2023-04-05T08:36:24.073Z,59.59
2023-04-05T08:38:51.773Z,58.60
2023-04-05T08:41:21.621Z,58.30
2023-04-05T08:43:58.036Z,59.80
2023-04-05T08:46:28.077Z,59.47
2023-04-05T08:48:56.221Z,55.92
2023-04-05T08:51:24.817Z,58.48
2023-04-05T08:53:52.837Z,58.25
2023-04-05T08:56:26.404Z,59.29
2023-04-05T08:58:58.919Z,55.92
2023-04-05T09:01:31.296Z,55.85
2023-04-05T09:04:01.933Z,54.64
2023-04-05T09:06:29.714Z,54.78
2023-04-05T09:08:58.844Z,52.61
2023-04-05T09:11:27.143Z,52.23
2023-04-05T09:13:55.048Z,53.44
2023-04-05T09:16:24.578Z,51.82
2023-04-05T09:18:53.716Z,52.96
2023-04-05T09:21:23.609Z,48.83
2023-04-05T09:23:56.088Z,49.69
2023-04-05T09:26:25.741Z,53.60
2023-04-05T09:28:58.232Z,52.92
2023-04-05T09:31:36.045Z,50.40
2023-04-05T09:34:10.893Z,51.01
2023-04-05T09:36:44.763Z,49.04
2023-04-05T09:39:12.889Z,50.92
2023-04-05T09:41:41.000Z,51.57
2023-04-05T09:44:08.677Z,51.18
2023-04-05T09:46:38.551Z,49.08
2023-04-05T09:49:09.338Z,49.73
2023-04-05T09:51:39.934Z,48.76
2023-04-05T09:54:12.288Z,49.71
2023-04-05T09:56:41.903Z,47.89
2023-04-05T09:59:11.438Z,47.25
2023-04-05T10:01:44.387Z,49.14
2023-04-05T10:04:12.624Z,47.64
2023-04-05T10:06:43.662Z,46.47
2023-04-05T10:09:17.305Z,47.24
2023-04-05T10:11:46.228Z,48.37
2023-04-05T10:14:13.973Z,48.39
2023-04-05T10:16:48.526Z,47.23
2023-04-05T10:19:26.319Z,46.57
2023-04-05T10:21:57.093Z,46.16
2023-04-05T10:24:36.681Z,46.87
2023-04-05T10:27:08.806Z,46.83
2023-04-05T10:29:51.676Z,45.75
2023-04-05T10:32:28.403Z,47.42
2023-04-05T10:35:01.924Z,49.35
2023-04-05T10:37:41.908Z,51.17
2023-04-05T10:40:11.239Z,50.15
2023-04-05T10:42:43.824Z,51.27
2023-04-05T10:45:15.578Z,49.76
2023-04-05T10:47:48.395Z,46.49
2023-04-05T10:50:22.566Z,47.81
2023-04-05T10:52:53.055Z,47.46
2023-04-05T10:55:22.417Z,48.69
2023-04-05T10:57:51.539Z,48.45
2023-04-05T11:00:20.258Z,47.20
2023-04-05T11:02:49.820Z,48.52
2023-04-05T11:05:31.876Z,44.50
2023-04-05T11:08:05.761Z,45.93
2023-04-05T11:10:37.322Z,46.91
2023-04-05T11:13:10.599Z,43.76
2023-04-05T11:15:39.152Z,42.07
2023-04-05T11:18:11.550Z,46.03
2023-04-05T11:20:44.468Z,45.44
2023-04-05T11:23:15.835Z,44.39
2023-04-05T11:25:50.398Z,44.83
2023-04-05T11:28:26.608Z,42.97
2023-04-05T11:30:57.163Z,42.97
2023-04-05T11:33:57.254Z,40.64
2023-04-05T11:36:34.980Z,42.62
2023-04-05T11:39:29.449Z,45.18
2023-04-05T11:42:04.274Z,42.91
2023-04-05T11:44:42.826Z,44.06
2023-04-05T11:47:11.935Z,43.19
2023-04-05T11:49:42.693Z,41.76
2023-04-05T11:52:15.734Z,40.28
2023-04-05T11:54:49.794Z,41.17
2023-04-05T11:57:22.368Z,41.00
2023-04-05T11:59:51.657Z,41.16
2023-04-05T12:02:19.633Z,41.80
2023-04-05T12:04:55.086Z,40.46
2023-04-05T12:07:26.560Z,39.97
2023-04-05T12:10:08.355Z,38.39
2023-04-05T12:12:38.969Z,36.70
2023-04-05T12:15:09.957Z,37.46
2023-04-05T12:17:49.744Z,39.52
2023-04-05T12:20:20.465Z,37.81
2023-04-05T12:22:50.130Z,36.88
2023-04-05T12:25:21.241Z,37.96
2023-04-05T12:27:49.564Z,35.09
2023-04-05T12:30:19.227Z,37.20
2023-04-05T12:32:49.513Z,36.65
2023-04-05T12:35:19.187Z,38.42
2023-04-05T12:37:47.830Z,38.98
2023-04-05T12:40:21.465Z,36.52
2023-04-05T12:42:50.832Z,37.79
2023-04-05T12:45:19.525Z,36.95
2023-04-05T12:47:53.001Z,36.55
2023-04-05T12:50:28.609Z,33.78
2023-04-05T12:52:58.876Z,36.93
2023-04-05T12:55:28.548Z,36.98
2023-04-05T12:58:00.514Z,37.19
2023-04-05T13:00:31.061Z,35.75
2023-04-05T13:03:00.598Z,35.05
2023-04-05T13:05:31.275Z,36.37
2023-04-05T13:07:59.873Z,36.90
2023-04-05T13:10:28.097Z,37.48
2023-04-05T13:12:57.870Z,36.64
2023-04-05T13:15:25.893Z,36.37
2023-04-05T13:17:55.093Z,36.51
2023-04-05T13:20:23.839Z,36.66
2023-04-05T13:22:51.968Z,35.85
2023-04-05T13:25:20.165Z,35.00
2023-04-05T13:27:48.575Z,36.49
2023-04-05T13:30:18.974Z,37.35
2023-04-05T13:32:47.052Z,35.04
2023-04-05T13:35:15.241Z,35.35
2023-04-05T13:37:44.058Z,37.30
2023-04-05T13:40:13.039Z,37.48
2023-04-05T13:42:41.396Z,36.46
2023-04-05T13:45:10.522Z,35.44
2023-04-05T13:47:40.181Z,34.92
2023-04-05T13:50:09.413Z,36.23
2023-04-05T13:52:37.483Z,35.07
2023-04-05T13:55:10.126Z,34.57
2023-04-05T13:57:38.142Z,35.10
2023-04-05T14:00:08.734Z,36.86
2023-04-05T14:02:41.780Z,34.67
2023-04-05T14:05:10.612Z,35.92
2023-04-05T14:07:39.198Z,37.22
2023-04-05T14:10:08.052Z,35.98
2023-04-05T14:12:36.236Z,35.00
2023-04-05T14:15:05.099Z,36.29
2023-04-05T14:17:33.521Z,37.27
2023-04-05T14:20:03.790Z,34.43
2023-04-05T14:22:33.032Z,38.36
2023-04-05T14:25:01.351Z,34.32
2023-04-05T14:27:29.551Z,35.19
2023-04-05T14:29:57.993Z,35.88
2023-04-05T14:32:26.975Z,35.02
2023-04-05T14:34:55.018Z,35.25
2023-04-05T14:37:25.186Z,35.27
2023-04-05T14:39:53.530Z,35.89
2023-04-05T14:42:22.957Z,38.55
2023-04-05T14:44:51.401Z,38.87
2023-04-05T14:47:19.573Z,39.28
2023-04-05T14:49:47.913Z,40.13
2023-04-05T14:52:16.370Z,40.01
2023-04-05T14:54:46.698Z,39.40
2023-04-05T14:57:15.329Z,38.77
2023-04-05T14:59:44.748Z,38.54
2023-04-05T15:02:13.156Z,38.40
2023-04-05T15:04:42.689Z,38.63
2023-04-05T15:07:11.259Z,40.84
2023-04-05T15:09:39.718Z,40.48
2023-04-05T15:12:09.537Z,37.01
2023-04-05T15:14:37.678Z,39.28
2023-04-05T15:17:05.961Z,38.16
2023-04-05T15:19:35.842Z,37.42
2023-04-05T15:22:03.967Z,36.89
2023-04-05T15:24:32.248Z,39.81
2023-04-05T15:27:02.753Z,40.12
2023-04-05T15:29:33.088Z,39.54
2023-04-05T15:32:02.080Z,39.62
2023-04-05T15:34:31.801Z,41.33
2023-04-05T15:36:59.575Z,39.05
2023-04-05T15:39:27.995Z,38.93
2023-04-05T15:41:57.413Z,38.18
2023-04-05T15:44:26.857Z,35.05
2023-04-05T15:46:56.011Z,36.70
2023-04-05T15:49:23.962Z,38.06
2023-04-05T15:51:52.144Z,39.45
2023-04-05T15:54:20.945Z,38.49
2023-04-05T15:56:49.457Z,37.96
2023-04-05T15:59:19.363Z,39.64
2023-04-05T16:01:47.272Z,37.96
2023-04-05T16:04:16.736Z,37.95
2023-04-05T16:06:44.641Z,40.89
2023-04-05T16:09:12.538Z,40.52
2023-04-05T16:11:40.797Z,41.03
2023-04-05T16:14:10.340Z,41.23
2023-04-05T16:16:50.117Z,39.81
2023-04-05T16:19:23.417Z,40.52
2023-04-05T16:21:52.948Z,42.59
2023-04-05T16:24:21.263Z,41.67
2023-04-05T16:26:49.333Z,42.17
2023-04-05T16:29:17.270Z,43.35
2023-04-05T16:31:47.435Z,44.07
2023-04-05T16:34:16.300Z,44.25
2023-04-05T16:36:45.548Z,43.26
2023-04-05T16:39:13.308Z,42.39
2023-04-05T16:41:41.306Z,43.89
2023-04-05T16:44:09.363Z,44.79
2023-04-05T16:46:37.627Z,44.13
2023-04-05T16:49:05.888Z,41.66
2023-04-05T16:51:35.938Z,37.22
2023-04-05T16:54:05.605Z,38.07
2023-04-05T16:56:33.757Z,41.66
2023-04-05T16:59:02.629Z,41.85
2023-04-05T17:01:31.819Z,43.13
2023-04-05T17:04:00.057Z,44.51
2023-04-05T17:06:28.946Z,44.00
2023-04-05T17:08:56.967Z,43.46
2023-04-05T17:11:28.325Z,44.65
2023-04-05T17:13:57.719Z,45.06
2023-04-05T17:16:25.762Z,42.63
2023-04-05T17:18:53.789Z,46.46
2023-04-05T17:21:22.754Z,45.92
2023-04-05T17:23:50.705Z,45.62
2023-04-05T17:26:19.239Z,44.61
2023-04-05T17:28:48.886Z,44.50
2023-04-05T17:31:17.069Z,46.34
2023-04-05T17:33:47.722Z,46.53
2023-04-05T17:36:16.696Z,47.20
2023-04-05T17:38:44.721Z,46.22
2023-04-05T17:41:12.832Z,49.50
2023-04-05T17:43:41.216Z,48.69
2023-04-05T17:46:13.713Z,48.71
2023-04-05T17:48:42.240Z,50.13
2023-04-05T17:51:10.682Z,47.85
2023-04-05T17:53:38.561Z,49.84
2023-04-05T17:56:07.054Z,48.47
2023-04-05T17:58:35.159Z,50.29
2023-04-05T18:01:03.547Z,50.46
2023-04-05T18:03:33.174Z,50.93
2023-04-05T18:06:02.284Z,52.39
2023-04-05T18:08:30.326Z,53.94
2023-04-05T18:10:58.720Z,52.87
2023-04-05T18:13:27.747Z,50.94
2023-04-05T18:15:56.422Z,52.69
2023-04-05T18:18:24.851Z,53.62
2023-04-05T18:20:54.797Z,55.13
2023-04-05T18:23:24.736Z,53.93
2023-04-05T18:25:54.222Z,54.18
2023-04-05T18:28:23.697Z,55.70
2023-04-05T18:30:53.143Z,56.38
2023-04-05T18:33:22.546Z,56.80
2023-04-05T18:35:51.952Z,56.93
2023-04-05T18:38:21.700Z,57.23
2023-04-05T18:40:50.361Z,55.36
2023-04-05T18:43:18.350Z,55.84
2023-04-05T18:45:46.267Z,55.21
2023-04-05T18:48:15.390Z,55.59
2023-04-05T18:50:43.623Z,55.37
2023-04-05T18:53:12.128Z,55.08
2023-04-05T18:55:42.263Z,54.37
2023-04-05T18:58:10.188Z,54.45
2023-04-05T19:00:38.392Z,54.67
2023-04-05T19:03:07.151Z,53.66
2023-04-05T19:05:36.933Z,51.70
2023-04-05T19:08:05.094Z,52.58
2023-04-05T19:10:33.811Z,54.18
2023-04-05T19:13:03.734Z,54.15
2023-04-05T19:15:32.016Z,53.60
2023-04-05T19:18:01.261Z,54.59
2023-04-05T19:20:29.316Z,55.11
2023-04-05T19:22:57.495Z,55.60
2023-04-05T19:25:26.584Z,54.83
2023-04-05T19:27:56.976Z,55.08
2023-04-05T19:30:26.531Z,54.63
2023-04-05T19:32:56.740Z,53.96
2023-04-05T19:35:25.048Z,54.82
2023-04-05T19:37:53.951Z,54.37
2023-04-05T19:40:23.526Z,55.44
2023-04-05T19:42:52.409Z,54.96
2023-04-05T19:45:27.365Z,56.89
2023-04-05T19:47:57.086Z,56.97
2023-04-05T19:51:00.370Z,56.43
2023-04-05T19:53:40.089Z,55.74
2023-04-05T19:56:12.100Z,56.18
2023-04-05T19:58:40.393Z,55.51
2023-04-05T20:01:13.110Z,53.75
2023-04-05T20:03:42.454Z,56.18
2023-04-05T20:06:13.681Z,54.46
2023-04-05T20:08:44.422Z,56.62
2023-04-05T20:11:14.508Z,56.52
2023-04-05T20:13:44.985Z,56.18
2023-04-05T20:16:16.819Z,56.93
2023-04-05T20:18:49.913Z,56.76
2023-04-05T20:21:19.192Z,57.11
2023-04-05T20:23:49.926Z,54.24
2023-04-05T20:26:18.961Z,54.76
2023-04-05T20:28:54.673Z,55.31
2023-04-05T20:31:26.370Z,55.13
2023-04-05T20:33:56.202Z,57.27
2023-04-05T20:36:28.313Z,57.67
2023-04-05T20:38:56.360Z,58.06
2023-04-05T20:41:24.751Z,58.85
2023-04-05T20:43:54.234Z,58.76
2023-04-05T20:46:22.448Z,58.75
2023-04-05T20:48:53.914Z,58.48
2023-04-05T20:51:22.390Z,59.04
2023-04-05T20:53:51.330Z,56.92
2023-04-05T20:56:19.672Z,60.33
2023-04-05T20:58:47.847Z,62.52
2023-04-05T21:01:16.417Z,63.06
2023-04-05T21:03:44.445Z,61.78
2023-04-05T21:06:14.311Z,61.16
2023-04-05T21:08:43.816Z,61.89
2023-04-05T21:11:12.443Z,62.59
2023-04-05T21:13:41.352Z,64.27
2023-04-05T21:16:09.632Z,65.64
2023-04-05T21:18:42.848Z,66.64
2023-04-05T21:21:10.976Z,66.65
2023-04-05T21:23:40.322Z,66.01
2023-04-05T21:26:08.791Z,65.62
2023-04-05T21:28:37.101Z,65.70
2023-04-05T21:31:05.085Z,65.25
2023-04-05T21:33:33.211Z,65.88
2023-04-05T21:36:02.111Z,66.74
2023-04-05T21:38:30.814Z,67.24
2023-04-05T21:41:00.644Z,65.18
2023-04-05T21:43:28.901Z,66.11
2023-04-05T21:45:57.502Z,66.00
2023-04-05T21:48:27.837Z,65.87
2023-04-05T21:50:55.950Z,66.45
2023-04-05T21:53:25.595Z,66.22
2023-04-05T21:55:54.630Z,66.19
2023-04-05T21:58:26.728Z,66.78
2023-04-05T22:00:54.770Z,66.04
2023-04-05T22:03:23.020Z,66.66
2023-04-05T22:05:50.953Z,66.03
2023-04-05T22:08:18.871Z,65.88
2023-04-05T22:10:46.796Z,65.98
2023-04-05T22:13:14.806Z,65.64
2023-04-05T22:15:44.911Z,64.79
2023-04-05T22:18:13.321Z,65.58
2023-04-05T22:20:41.217Z,66.00
2023-04-05T22:23:09.121Z,64.80
2023-04-05T22:25:37.791Z,65.43
2023-04-05T22:28:06.266Z,65.54
2023-04-05T22:30:43.789Z,65.09
2023-04-05T22:33:13.959Z,65.42
2023-04-05T22:35:42.376Z,65.69
2023-04-05T22:38:10.668Z,66.01
2023-04-05T22:40:38.660Z,65.36
2023-04-05T22:43:06.945Z,66.05
2023-04-05T22:45:35.242Z,66.76
2023-04-05T22:48:03.298Z,66.54
2023-04-05T22:50:32.836Z,67.97
2023-04-05T22:53:01.202Z,69.22
2023-04-05T22:55:29.265Z,69.58
2023-04-05T22:57:57.217Z,70.17
2023-04-05T23:00:25.477Z,73.90
2023-04-05T23:02:53.339Z,75.34
2023-04-05T23:05:21.631Z,76.57
2023-04-05T23:07:51.118Z,75.40
2023-04-05T23:10:19.469Z,73.90
2023-04-05T23:12:48.962Z,73.49
2023-04-05T23:15:16.918Z,73.76
2023-04-05T23:17:44.895Z,75.44
2023-04-05T23:20:12.949Z,74.79
2023-04-05T23:22:41.038Z,75.84
2023-04-05T23:25:11.157Z,75.45
2023-04-05T23:27:39.257Z,75.12
2023-04-05T23:30:08.656Z,74.54
2023-04-05T23:32:37.200Z,74.07
2023-04-05T23:35:05.983Z,72.92
2023-04-05T23:37:33.974Z,72.51
2023-04-05T23:40:04.771Z,73.65
2023-04-05T23:42:34.871Z,71.33
2023-04-05T23:45:09.012Z,71.25
2023-04-05T23:47:38.500Z,71.97
2023-04-05T23:50:08.227Z,72.15
2023-04-05T23:52:36.433Z,72.96
2023-04-05T23:55:04.996Z,73.62
2023-04-05T23:57:38.066Z,72.92
